sensor_id;sensor_type;location;lat;lon;timestamp;pressure;altitude;pressure_sealevel;temperature;humidity
15193;BME280;7697;51.630;7.484;2023-05-23T00:01:16;-17654.63;;;17.43;95.52
15193;BME280;7697;51.630;7.484;2023-05-23T00:06:20;-17652.59;;;17.37;95.63
15193;BME280;7697;51.630;7.484;2023-05-23T00:11:25;-17652.44;;;17.36;95.63
15193;BME280;7697;51.630;7.484;2023-05-23T00:16:29;-17649.91;;;17.29;95.98
15193;BME280;7697;51.630;7.484;2023-05-23T00:21:33;-17648.91;;;17.25;96.12
15193;BME280;7697;51.630;7.484;2023-05-23T00:26:35;-17646.06;;;17.17;96.18
15193;BME280;7697;51.630;7.484;2023-05-23T00:31:38;-17645.41;;;17.15;95.86
15193;BME280;7697;51.630;7.484;2023-05-23T00:36:41;-17643.22;;;17.08;94.40
15193;BME280;7697;51.630;7.484;2023-05-23T00:41:43;-17637.00;;;16.90;94.10
15193;BME280;7697;51.630;7.484;2023-05-23T00:46:53;-17636.16;;;16.87;92.73
15193;BME280;7697;51.630;7.484;2023-05-23T00:51:57;-17634.31;;;16.81;92.79
15193;BME280;7697;51.630;7.484;2023-05-23T00:57:00;-17633.31;;;16.78;93.19
15193;BME280;7697;51.630;7.484;2023-05-23T01:02:02;-17631.47;;;16.73;92.86
15193;BME280;7697;51.630;7.484;2023-05-23T01:07:06;-17630.78;;;16.71;93.75
15193;BME280;7697;51.630;7.484;2023-05-23T01:12:16;-17632.81;;;16.77;93.77
15193;BME280;7697;51.630;7.484;2023-05-23T01:17:23;-17631.13;;;16.72;93.95
15193;BME280;7697;51.630;7.484;2023-05-23T01:22:47;-17630.78;;;16.71;94.69
15193;BME280;7697;51.630;7.484;2023-05-23T01:27:54;-17629.44;;;16.67;94.37
15193;BME280;7697;51.630;7.484;2023-05-23T01:32:58;-17629.97;;;16.68;94.61
15193;BME280;7697;51.630;7.484;2023-05-23T01:38:00;-17630.78;;;16.71;94.89
15193;BME280;7697;51.630;7.484;2023-05-23T01:43:04;-17631.81;;;16.74;94.90
15193;BME280;7697;51.630;7.484;2023-05-23T01:48:07;-17632.81;;;16.77;95.30
15193;BME280;7697;51.630;7.484;2023-05-23T01:53:11;-17632.47;;;16.76;95.70
15193;BME280;7697;51.630;7.484;2023-05-23T01:58:14;-17634.81;;;16.83;95.12
15193;BME280;7697;51.630;7.484;2023-05-23T02:03:17;-17634.66;;;16.82;95.55
15193;BME280;7697;51.630;7.484;2023-05-23T02:08:18;-17634.66;;;16.82;95.72
15193;BME280;7697;51.630;7.484;2023-05-23T02:13:22;-17635.31;;;16.84;95.64
15193;BME280;7697;51.630;7.484;2023-05-23T02:18:24;-17635.00;;;16.83;95.99
15193;BME280;7697;51.630;7.484;2023-05-23T02:23:28;-17635.50;;;16.85;96.02
15193;BME280;7697;51.630;7.484;2023-05-23T02:28:31;-17636.34;;;16.87;95.68
15193;BME280;7697;51.630;7.484;2023-05-23T02:33:35;-17637.19;;;16.90;95.45
15193;BME280;7697;51.630;7.484;2023-05-23T02:38:37;-17636.34;;;16.87;96.13
15193;BME280;7697;51.630;7.484;2023-05-23T02:43:40;-17636.34;;;16.87;95.99
15193;BME280;7697;51.630;7.484;2023-05-23T02:48:42;-17633.81;;;16.80;96.16
15193;BME280;7697;51.630;7.484;2023-05-23T02:53:44;-17634.66;;;16.82;95.73
15193;BME280;7697;51.630;7.484;2023-05-23T02:58:48;-17634.16;;;16.81;96.38
15193;BME280;7697;51.630;7.484;2023-05-23T03:03:55;-17632.13;;;16.75;96.76
15193;BME280;7697;51.630;7.484;2023-05-23T03:08:56;-17629.97;;;16.68;96.99
15193;BME280;7697;51.630;7.484;2023-05-23T03:14:00;-17630.78;;;16.71;97.41
15193;BME280;7697;51.630;7.484;2023-05-23T03:19:01;-17627.44;;;16.61;97.75
15193;BME280;7697;51.630;7.484;2023-05-23T03:24:04;-17628.44;;;16.64;97.70
15193;BME280;7697;51.630;7.484;2023-05-23T03:29:07;-17627.94;;;16.62;97.92
15193;BME280;7697;51.630;7.484;2023-05-23T03:34:13;-17628.13;;;16.63;97.87
15193;BME280;7697;51.630;7.484;2023-05-23T03:39:15;-17625.75;;;16.56;98.10
15193;BME280;7697;51.630;7.484;2023-05-23T03:44:18;-17623.06;;;16.47;98.46
15193;BME280;7697;51.630;7.484;2023-05-23T03:49:20;-17621.56;;;16.43;99.02
15193;BME280;7697;51.630;7.484;2023-05-23T03:54:22;-17619.03;;;16.35;99.26
15193;BME280;7697;51.630;7.484;2023-05-23T03:59:25;-17618.03;;;16.32;99.10
15193;BME280;7697;51.630;7.484;2023-05-23T04:04:28;-17615.34;;;16.24;99.51
15193;BME280;7697;51.630;7.484;2023-05-23T04:09:30;-17614.34;;;16.21;99.34
15193;BME280;7697;51.630;7.484;2023-05-23T04:14:33;-17614.84;;;16.23;99.64
15193;BME280;7697;51.630;7.484;2023-05-23T04:19:35;-17615.53;;;16.25;99.43
15193;BME280;7697;51.630;7.484;2023-05-23T04:24:38;-17616.38;;;16.27;99.31
15193;BME280;7697;51.630;7.484;2023-05-23T04:29:45;-17617.38;;;16.30;99.30
15193;BME280;7697;51.630;7.484;2023-05-23T04:40:13;-17610.81;;;16.10;99.38
15193;BME280;7697;51.630;7.484;2023-05-23T04:45:29;-17611.31;;;16.12;99.51
15193;BME280;7697;51.630;7.484;2023-05-23T04:50:31;-17610.50;;;16.09;99.36
15193;BME280;7697;51.630;7.484;2023-05-23T04:55:35;-17610.31;;;16.09;99.58
15193;BME280;7697;51.630;7.484;2023-05-23T05:00:42;-17611.31;;;16.12;99.26
15193;BME280;7697;51.630;7.484;2023-05-23T05:05:44;-17612.00;;;16.14;99.53
15193;BME280;7697;51.630;7.484;2023-05-23T05:10:46;-17613.00;;;16.17;99.25
15193;BME280;7697;51.630;7.484;2023-05-23T05:15:53;-17614.00;;;16.20;99.06
15193;BME280;7697;51.630;7.484;2023-05-23T05:21:01;-17613.34;;;16.18;99.44
15193;BME280;7697;51.630;7.484;2023-05-23T05:26:03;-17613.00;;;16.17;99.31
15193;BME280;7697;51.630;7.484;2023-05-23T05:31:07;-17612.66;;;16.16;99.55
15193;BME280;7697;51.630;7.484;2023-05-23T05:36:09;-17611.31;;;16.12;99.33
15193;BME280;7697;51.630;7.484;2023-05-23T05:41:11;-17612.84;;;16.17;99.57
15193;BME280;7697;51.630;7.484;2023-05-23T05:46:14;-17612.00;;;16.14;99.70
15193;BME280;7697;51.630;7.484;2023-05-23T05:51:16;-17610.31;;;16.09;99.29
15193;BME280;7697;51.630;7.484;2023-05-23T05:56:17;-17607.63;;;16.01;99.51
15193;BME280;7697;51.630;7.484;2023-05-23T06:01:21;-17607.47;;;16.00;99.20
15193;BME280;7697;51.630;7.484;2023-05-23T06:06:22;-17607.63;;;16.01;99.65
15193;BME280;7697;51.630;7.484;2023-05-23T06:11:24;-17604.28;;;15.91;99.51
15193;BME280;7697;51.630;7.484;2023-05-23T06:16:28;-17604.28;;;15.91;99.68
15193;BME280;7697;51.630;7.484;2023-05-23T06:21:31;-17599.91;;;15.77;99.74
15193;BME280;7697;51.630;7.484;2023-05-23T06:26:33;-17595.22;;;15.63;100.00
15193;BME280;7697;51.630;7.484;2023-05-23T06:31:38;-17594.22;;;15.60;100.00
15193;BME280;7697;51.630;7.484;2023-05-23T06:36:40;-17593.53;;;15.58;100.00
15193;BME280;7697;51.630;7.484;2023-05-23T06:41:42;-17593.19;;;15.57;100.00
15193;BME280;7697;51.630;7.484;2023-05-23T06:46:45;-17590.50;;;15.49;100.00
15193;BME280;7697;51.630;7.484;2023-05-23T06:51:47;-17588.84;;;15.44;100.00
15193;BME280;7697;51.630;7.484;2023-05-23T06:56:49;-17585.47;;;15.34;100.00
15193;BME280;7697;51.630;7.484;2023-05-23T07:01:54;-17583.97;;;15.29;100.00
15193;BME280;7697;51.630;7.484;2023-05-23T07:06:55;-17585.81;;;15.35;100.00
15193;BME280;7697;51.630;7.484;2023-05-23T07:11:57;-17583.47;;;15.28;100.00
15193;BME280;7697;51.630;7.484;2023-05-23T07:17:00;-17582.47;;;15.25;100.00
15193;BME280;7697;51.630;7.484;2023-05-23T07:22:03;-17580.44;;;15.19;100.00
15193;BME280;7697;51.630;7.484;2023-05-23T07:27:05;-17579.09;;;15.15;100.00
15193;BME280;7697;51.630;7.484;2023-05-23T07:32:08;-17578.59;;;15.13;100.00
15193;BME280;7697;51.630;7.484;2023-05-23T07:37:10;-17576.91;;;15.08;100.00
15193;BME280;7697;51.630;7.484;2023-05-23T07:42:12;-17579.59;;;15.16;100.00
15193;BME280;7697;51.630;7.484;2023-05-23T07:47:15;-17579.78;;;15.17;100.00
15193;BME280;7697;51.630;7.484;2023-05-23T07:52:17;-17579.44;;;15.16;100.00
15193;BME280;7697;51.630;7.484;2023-05-23T07:57:19;-17577.59;;;15.10;100.00
15193;BME280;7697;51.630;7.484;2023-05-23T08:02:22;-17577.75;;;15.11;100.00
15193;BME280;7697;51.630;7.484;2023-05-23T08:07:24;-17574.41;;;15.00;100.00
15193;BME280;7697;51.630;7.484;2023-05-23T08:12:26;-17575.56;;;15.04;100.00
15193;BME280;7697;51.630;7.484;2023-05-23T08:17:29;-17577.75;;;15.11;100.00
15193;BME280;7697;51.630;7.484;2023-05-23T08:22:31;-17576.41;;;15.07;100.00
15193;BME280;7697;51.630;7.484;2023-05-23T08:27:32;-17575.41;;;15.03;99.93
15193;BME280;7697;51.630;7.484;2023-05-23T08:32:37;-17573.06;;;14.96;99.62
15193;BME280;7697;51.630;7.484;2023-05-23T08:37:39;-17571.72;;;14.92;100.00
15193;BME280;7697;51.630;7.484;2023-05-23T08:42:41;-17571.22;;;14.91;100.00
15193;BME280;7697;51.630;7.484;2023-05-23T08:47:45;-17573.06;;;14.96;99.91
15193;BME280;7697;51.630;7.484;2023-05-23T08:52:51;-17571.88;;;14.93;98.97
15193;BME280;7697;51.630;7.484;2023-05-23T08:57:57;-17572.06;;;14.93;99.11
15193;BME280;7697;51.630;7.484;2023-05-23T09:03:01;-17574.06;;;14.99;99.45
15193;BME280;7697;51.630;7.484;2023-05-23T09:08:02;-17571.72;;;14.92;98.78
15193;BME280;7697;51.630;7.484;2023-05-23T09:13:05;-17571.38;;;14.91;99.06
15193;BME280;7697;51.630;7.484;2023-05-23T09:18:08;-17569.22;;;14.85;99.40
15193;BME280;7697;51.630;7.484;2023-05-23T09:23:10;-17567.53;;;14.80;98.66
15193;BME280;7697;51.630;7.484;2023-05-23T09:28:13;-17562.66;;;14.65;98.91
15193;BME280;7697;51.630;7.484;2023-05-23T09:33:16;-17560.81;;;14.59;98.59
15193;BME280;7697;51.630;7.484;2023-05-23T09:38:18;-17558.28;;;14.52;99.13
15193;BME280;7697;51.630;7.484;2023-05-23T09:43:21;-17557.97;;;14.51;98.39
15193;BME280;7697;51.630;7.484;2023-05-23T09:48:28;-17557.13;;;14.48;98.01
15193;BME280;7697;51.630;7.484;2023-05-23T09:53:31;-17555.94;;;14.45;97.72
15193;BME280;7697;51.630;7.484;2023-05-23T09:58:34;-17555.44;;;14.43;97.75
15193;BME280;7697;51.630;7.484;2023-05-23T10:03:44;-17555.44;;;14.43;97.28
15193;BME280;7697;51.630;7.484;2023-05-23T10:08:51;-17554.28;;;14.40;97.12
15193;BME280;7697;51.630;7.484;2023-05-23T10:13:55;-17553.75;;;14.38;96.35
15193;BME280;7697;51.630;7.484;2023-05-23T10:19:03;-17548.56;;;14.22;94.59
15193;BME280;7697;51.630;7.484;2023-05-23T10:24:07;-17548.06;;;14.21;94.06
15193;BME280;7697;51.630;7.484;2023-05-23T10:29:09;-17546.53;;;14.16;93.47
15193;BME280;7697;51.630;7.484;2023-05-23T10:34:18;-17555.28;;;14.43;93.37
15193;BME280;7697;51.630;7.484;2023-05-23T10:39:32;-17573.41;;;14.97;90.68
15193;BME280;7697;51.630;7.484;2023-05-23T10:44:35;-17595.88;;;15.65;88.19
15193;BME280;7697;51.630;7.484;2023-05-23T10:49:39;-17609.31;;;16.06;85.36
15193;BME280;7697;51.630;7.484;2023-05-23T10:54:42;-17608.97;;;16.05;85.39
15193;BME280;7697;51.630;7.484;2023-05-23T10:59:45;-17607.13;;;15.99;85.69
15193;BME280;7697;51.630;7.484;2023-05-23T11:05:17;-17606.28;;;15.97;85.10
15193;BME280;7697;51.630;7.484;2023-05-23T11:10:20;-17605.94;;;15.96;85.27
15193;BME280;7697;51.630;7.484;2023-05-23T11:15:22;-17604.44;;;15.91;84.47
15193;BME280;7697;51.630;7.484;2023-05-23T11:20:25;-17602.09;;;15.84;82.05
15193;BME280;7697;51.630;7.484;2023-05-23T11:25:41;-17606.97;;;15.99;79.95
15193;BME280;7697;51.630;7.484;2023-05-23T11:30:44;-17609.66;;;16.07;81.69
15193;BME280;7697;51.630;7.484;2023-05-23T11:35:49;-17612.34;;;16.15;80.43
15193;BME280;7697;51.630;7.484;2023-05-23T11:40:52;-17611.00;;;16.11;80.90
15193;BME280;7697;51.630;7.484;2023-05-23T11:45:53;-17607.97;;;16.02;81.90
15193;BME280;7697;51.630;7.484;2023-05-23T11:50:56;-17605.44;;;15.94;79.82
15193;BME280;7697;51.630;7.484;2023-05-23T11:56:01;-17600.09;;;15.78;79.95
15193;BME280;7697;51.630;7.484;2023-05-23T12:01:04;-17604.44;;;15.91;80.87
15193;BME280;7697;51.630;7.484;2023-05-23T12:06:07;-17617.69;;;16.31;79.37
15193;BME280;7697;51.630;7.484;2023-05-23T12:11:09;-17629.78;;;16.68;78.24
15193;BME280;7697;51.630;7.484;2023-05-23T12:16:13;-17642.88;;;17.07;73.81
15193;BME280;7697;51.630;7.484;2023-05-23T12:21:16;-17658.66;;;17.55;71.53
15193;BME280;7697;51.630;7.484;2023-05-23T12:26:18;-17668.38;;;17.84;69.49
15193;BME280;7697;51.630;7.484;2023-05-23T12:31:21;-17679.28;;;18.17;70.91
15193;BME280;7697;51.630;7.484;2023-05-23T12:36:28;-17681.66;;;18.24;70.71
15193;BME280;7697;51.630;7.484;2023-05-23T12:41:32;-17681.97;;;18.25;70.10
15193;BME280;7697;51.630;7.484;2023-05-23T12:46:33;-17677.44;;;18.12;70.00
15193;BME280;7697;51.630;7.484;2023-05-23T12:51:37;-17674.44;;;18.03;66.72
15193;BME280;7697;51.630;7.484;2023-05-23T12:56:38;-17674.44;;;18.03;67.34
15193;BME280;7697;51.630;7.484;2023-05-23T13:01:40;-17676.44;;;18.09;65.64
15193;BME280;7697;51.630;7.484;2023-05-23T13:06:43;-17680.81;;;18.22;66.28
15193;BME280;7697;51.630;7.484;2023-05-23T13:11:46;-17695.25;;;18.65;67.50
15193;BME280;7697;51.630;7.484;2023-05-23T13:16:48;-17699.59;;;18.79;64.60
15193;BME280;7697;51.630;7.484;2023-05-23T13:21:51;-17694.22;;;18.62;66.22
15193;BME280;7697;51.630;7.484;2023-05-23T13:26:53;-17698.25;;;18.74;64.71
15193;BME280;7697;51.630;7.484;2023-05-23T13:31:55;-17708.50;;;19.05;65.21
15193;BME280;7697;51.630;7.484;2023-05-23T13:36:58;-17724.09;;;19.53;63.55
15193;BME280;7697;51.630;7.484;2023-05-23T13:42:00;-17727.81;;;19.64;62.22
15193;BME280;7697;51.630;7.484;2023-05-23T13:47:09;-17722.78;;;19.48;61.63
15193;BME280;7697;51.630;7.484;2023-05-23T13:52:14;-17725.13;;;19.56;59.35
15193;BME280;7697;51.630;7.484;2023-05-23T13:57:16;-17720.25;;;19.41;59.73
15193;BME280;7697;51.630;7.484;2023-05-23T14:02:18;-17724.59;;;19.54;60.29
15193;BME280;7697;51.630;7.484;2023-05-23T14:07:25;-17731.50;;;19.75;58.04
15193;BME280;7697;51.630;7.484;2023-05-23T14:12:27;-17731.50;;;19.75;57.42
15193;BME280;7697;51.630;7.484;2023-05-23T14:17:32;-17722.94;;;19.49;56.03
15193;BME280;7697;51.630;7.484;2023-05-23T14:22:37;-17722.59;;;19.48;55.88
15193;BME280;7697;51.630;7.484;2023-05-23T14:27:39;-17724.09;;;19.53;56.43
15193;BME280;7697;51.630;7.484;2023-05-23T14:32:41;-17730.81;;;19.73;55.48
15193;BME280;7697;51.630;7.484;2023-05-23T14:37:45;-17724.44;;;19.54;53.07
15193;BME280;7697;51.630;7.484;2023-05-23T14:42:47;-17719.06;;;19.37;56.34
15193;BME280;7697;51.630;7.484;2023-05-23T14:47:48;-17728.13;;;19.65;56.67
15193;BME280;7697;51.630;7.484;2023-05-23T14:52:52;-17724.44;;;19.54;52.95
15193;BME280;7697;51.630;7.484;2023-05-23T14:57:54;-17725.63;;;19.57;53.41
15193;BME280;7697;51.630;7.484;2023-05-23T15:02:57;-17723.78;;;19.52;54.13
15193;BME280;7697;51.630;7.484;2023-05-23T15:08:00;-17717.41;;;19.32;53.36
15193;BME280;7697;51.630;7.484;2023-05-23T15:13:03;-17709.84;;;19.09;54.72
15193;BME280;7697;51.630;7.484;2023-05-23T15:18:05;-17710.00;;;19.10;55.14
15193;BME280;7697;51.630;7.484;2023-05-23T15:23:10;-17714.53;;;19.24;55.33
15193;BME280;7697;51.630;7.484;2023-05-23T15:28:12;-17711.53;;;19.15;55.09
15193;BME280;7697;51.630;7.484;2023-05-23T15:33:14;-17710.84;;;19.13;53.45
15193;BME280;7697;51.630;7.484;2023-05-23T15:38:17;-17705.81;;;18.97;56.44
15193;BME280;7697;51.630;7.484;2023-05-23T15:43:19;-17698.09;;;18.74;55.86
15193;BME280;7697;51.630;7.484;2023-05-23T15:48:21;-17691.88;;;18.55;58.56
15193;BME280;7697;51.630;7.484;2023-05-23T15:53:24;-17691.22;;;18.53;58.26
15193;BME280;7697;51.630;7.484;2023-05-23T15:58:26;-17690.38;;;18.51;59.39
15193;BME280;7697;51.630;7.484;2023-05-23T16:03:28;-17686.84;;;18.40;57.80
15193;BME280;7697;51.630;7.484;2023-05-23T16:08:31;-17684.84;;;18.34;56.96
15193;BME280;7697;51.630;7.484;2023-05-23T16:13:33;-17679.97;;;18.19;58.02
15193;BME280;7697;51.630;7.484;2023-05-23T16:18:34;-17676.44;;;18.09;57.21
15193;BME280;7697;51.630;7.484;2023-05-23T16:23:38;-17679.13;;;18.17;58.88
15193;BME280;7697;51.630;7.484;2023-05-23T16:28:40;-17678.63;;;18.15;57.65
15193;BME280;7697;51.630;7.484;2023-05-23T16:33:43;-17676.09;;;18.08;55.84
15193;BME280;7697;51.630;7.484;2023-05-23T16:38:46;-17668.72;;;17.85;56.58
15193;BME280;7697;51.630;7.484;2023-05-23T16:43:47;-17668.38;;;17.84;57.77
15193;BME280;7697;51.630;7.484;2023-05-23T16:48:49;-17666.38;;;17.78;56.44
15193;BME280;7697;51.630;7.484;2023-05-23T16:53:52;-17663.69;;;17.70;56.94
15193;BME280;7697;51.630;7.484;2023-05-23T16:58:55;-17657.13;;;17.50;56.21
15193;BME280;7697;51.630;7.484;2023-05-23T17:03:56;-17649.59;;;17.27;57.75
15193;BME280;7697;51.630;7.484;2023-05-23T17:09:00;-17646.91;;;17.19;59.39
15193;BME280;7697;51.630;7.484;2023-05-23T17:14:01;-17645.41;;;17.15;56.87
15193;BME280;7697;51.630;7.484;2023-05-23T17:19:03;-17642.53;;;17.06;56.70
15193;BME280;7697;51.630;7.484;2023-05-23T17:24:07;-17640.38;;;17.00;57.23
15193;BME280;7697;51.630;7.484;2023-05-23T17:29:08;-17636.84;;;16.89;57.67
15193;BME280;7697;51.630;7.484;2023-05-23T17:34:10;-17637.50;;;16.91;59.18
15193;BME280;7697;51.630;7.484;2023-05-23T17:39:14;-17637.50;;;16.91;58.87
15193;BME280;7697;51.630;7.484;2023-05-23T17:44:16;-17634.50;;;16.82;59.39
15193;BME280;7697;51.630;7.484;2023-05-23T17:49:19;-17630.47;;;16.70;58.63
15193;BME280;7697;51.630;7.484;2023-05-23T17:54:22;-17624.41;;;16.51;57.49
15193;BME280;7697;51.630;7.484;2023-05-23T17:59:24;-17617.69;;;16.31;57.71
15193;BME280;7697;51.630;7.484;2023-05-23T18:04:26;-17616.03;;;16.26;57.83
15193;BME280;7697;51.630;7.484;2023-05-23T18:09:29;-17614.69;;;16.22;58.84
15193;BME280;7697;51.630;7.484;2023-05-23T18:14:31;-17612.16;;;16.14;57.76
15193;BME280;7697;51.630;7.484;2023-05-23T18:19:33;-17607.97;;;16.02;58.73
15193;BME280;7697;51.630;7.484;2023-05-23T18:24:37;-17607.63;;;16.01;58.97
15193;BME280;7697;51.630;7.484;2023-05-23T18:29:39;-17604.44;;;15.91;59.65
15193;BME280;7697;51.630;7.484;2023-05-23T18:34:41;-17600.25;;;15.79;59.54
15193;BME280;7697;51.630;7.484;2023-05-23T18:39:44;-17598.41;;;15.73;60.35
15193;BME280;7697;51.630;7.484;2023-05-23T18:44:47;-17593.19;;;15.57;60.68
15193;BME280;7697;51.630;7.484;2023-05-23T18:49:49;-17593.19;;;15.57;60.77
15193;BME280;7697;51.630;7.484;2023-05-23T18:54:52;-17590.84;;;15.50;61.53
15193;BME280;7697;51.630;7.484;2023-05-23T18:59:54;-17584.81;;;15.32;61.49
15193;BME280;7697;51.630;7.484;2023-05-23T19:04:57;-17583.13;;;15.27;62.09
15193;BME280;7697;51.630;7.484;2023-05-23T19:10:00;-17580.78;;;15.20;63.23
15193;BME280;7697;51.630;7.484;2023-05-23T19:15:02;-17576.41;;;15.07;63.63
15193;BME280;7697;51.630;7.484;2023-05-23T19:20:06;-17575.75;;;15.05;62.43
15193;BME280;7697;51.630;7.484;2023-05-23T19:25:09;-17569.03;;;14.84;62.75
15193;BME280;7697;51.630;7.484;2023-05-23T19:30:12;-17566.69;;;14.77;63.53
15193;BME280;7697;51.630;7.484;2023-05-23T19:35:13;-17566.84;;;14.78;64.62
15193;BME280;7697;51.630;7.484;2023-05-23T19:40:17;-17567.03;;;14.78;65.14
15193;BME280;7697;51.630;7.484;2023-05-23T19:45:20;-17565.50;;;14.74;66.42
15193;BME280;7697;51.630;7.484;2023-05-23T19:50:22;-17563.00;;;14.66;66.87
15193;BME280;7697;51.630;7.484;2023-05-23T19:55:26;-17558.97;;;14.54;67.18
15193;BME280;7697;51.630;7.484;2023-05-23T20:00:28;-17556.13;;;14.45;67.01
15193;BME280;7697;51.630;7.484;2023-05-23T20:05:29;-17553.09;;;14.36;66.74
15193;BME280;7697;51.630;7.484;2023-05-23T20:10:33;-17549.41;;;14.25;67.40
15193;BME280;7697;51.630;7.484;2023-05-23T20:15:35;-17546.88;;;14.17;67.90
15193;BME280;7697;51.630;7.484;2023-05-23T20:20:36;-17544.88;;;14.11;67.56
15193;BME280;7697;51.630;7.484;2023-05-23T20:25:40;-17543.34;;;14.07;68.34
15193;BME280;7697;51.630;7.484;2023-05-23T20:30:42;-17541.19;;;14.00;69.36
15193;BME280;7697;51.630;7.484;2023-05-23T20:35:44;-17538.50;;;13.92;69.39
15193;BME280;7697;51.630;7.484;2023-05-23T20:40:49;-17534.13;;;13.79;70.17
15193;BME280;7697;51.630;7.484;2023-05-23T20:45:51;-17529.44;;;13.65;69.60
15193;BME280;7697;51.630;7.484;2023-05-23T20:50:52;-17526.59;;;13.56;69.52
15193;BME280;7697;51.630;7.484;2023-05-23T20:55:56;-17523.38;;;13.46;69.38
15193;BME280;7697;51.630;7.484;2023-05-23T21:00:58;-17520.72;;;13.38;69.51
15193;BME280;7697;51.630;7.484;2023-05-23T21:06:00;-17515.69;;;13.23;69.88
15193;BME280;7697;51.630;7.484;2023-05-23T21:11:03;-17515.00;;;13.21;70.66
15193;BME280;7697;51.630;7.484;2023-05-23T21:16:06;-17512.66;;;13.14;70.56
15193;BME280;7697;51.630;7.484;2023-05-23T21:21:11;-17508.13;;;13.00;71.09
15193;BME280;7697;51.630;7.484;2023-05-23T21:26:14;-17508.13;;;13.00;70.72
15193;BME280;7697;51.630;7.484;2023-05-23T21:31:16;-17506.59;;;12.96;71.33
15193;BME280;7697;51.630;7.484;2023-05-23T21:36:18;-17504.25;;;12.89;71.43
15193;BME280;7697;51.630;7.484;2023-05-23T21:41:21;-17502.25;;;12.83;71.74
15193;BME280;7697;51.630;7.484;2023-05-23T21:46:25;-17498.38;;;12.71;71.73
15193;BME280;7697;51.630;7.484;2023-05-23T21:51:26;-17495.53;;;12.62;71.95
15193;BME280;7697;51.630;7.484;2023-05-23T21:56:30;-17492.69;;;12.54;71.37
15193;BME280;7697;51.630;7.484;2023-05-23T22:01:31;-17487.47;;;12.38;71.98
15193;BME280;7697;51.630;7.484;2023-05-23T22:06:33;-17483.63;;;12.26;72.19
15193;BME280;7697;51.630;7.484;2023-05-23T22:11:37;-17481.09;;;12.19;73.11
15193;BME280;7697;51.630;7.484;2023-05-23T22:16:39;-17476.41;;;12.05;73.70
15193;BME280;7697;51.630;7.484;2023-05-23T22:21:40;-17473.56;;;11.96;73.77
15193;BME280;7697;51.630;7.484;2023-05-23T22:26:44;-17472.22;;;11.92;74.28
15193;BME280;7697;51.630;7.484;2023-05-23T22:31:46;-17466.34;;;11.74;74.67
15193;BME280;7697;51.630;7.484;2023-05-23T22:36:48;-17464.81;;;11.70;74.59
15193;BME280;7697;51.630;7.484;2023-05-23T22:41:51;-17460.97;;;11.58;74.88
15193;BME280;7697;51.630;7.484;2023-05-23T22:46:53;-17458.44;;;11.50;75.94
15193;BME280;7697;51.630;7.484;2023-05-23T22:51:55;-17456.44;;;11.44;76.12
15193;BME280;7697;51.630;7.484;2023-05-23T22:57:00;-17453.59;;;11.36;75.95
15193;BME280;7697;51.630;7.484;2023-05-23T23:02:01;-17449.56;;;11.23;75.93
15193;BME280;7697;51.630;7.484;2023-05-23T23:07:03;-17448.03;;;11.19;76.51
15193;BME280;7697;51.630;7.484;2023-05-23T23:12:06;-17444.53;;;11.08;75.85
15193;BME280;7697;51.630;7.484;2023-05-23T23:17:08;-17442.00;;;11.01;76.52
15193;BME280;7697;51.630;7.484;2023-05-23T23:22:12;-17440.34;;;10.96;77.15
15193;BME280;7697;51.630;7.484;2023-05-23T23:27:15;-17439.50;;;10.93;77.05
15193;BME280;7697;51.630;7.484;2023-05-23T23:32:17;-17435.63;;;10.81;77.15
15193;BME280;7697;51.630;7.484;2023-05-23T23:37:19;-17432.97;;;10.73;77.35
15193;BME280;7697;51.630;7.484;2023-05-23T23:42:22;-17430.09;;;10.65;77.28
15193;BME280;7697;51.630;7.484;2023-05-23T23:47:24;-17427.09;;;10.56;77.72
15193;BME280;7697;51.630;7.484;2023-05-23T23:52:26;-17424.41;;;10.47;77.83
15193;BME280;7697;51.630;7.484;2023-05-23T23:57:31;-17422.03;;;10.40;78.07
